createdAt,value
2017-05-15T00:00:35.802Z,14.73
2017-05-15T00:01:16.693Z,14.78
2017-05-15T00:01:57.565Z,14.69
2017-05-15T00:02:38.455Z,14.78
2017-05-15T00:03:19.347Z,14.81
2017-05-15T00:04:00.242Z,14.78
2017-05-15T00:04:41.136Z,14.73
2017-05-15T00:05:22.052Z,14.73
2017-05-15T00:06:02.938Z,14.82
2017-05-15T00:06:43.838Z,14.79
2017-05-15T00:07:24.729Z,14.82
2017-05-15T00:08:05.624Z,14.78
2017-05-15T00:08:46.517Z,14.79
2017-05-15T00:09:27.403Z,14.7
2017-05-15T00:10:08.293Z,14.81
2017-05-15T00:10:49.194Z,14.84
2017-05-15T00:11:30.078Z,14.86
2017-05-15T00:12:11.764Z,14.85
2017-05-15T00:12:52.665Z,14.84
2017-05-15T00:13:33.554Z,14.84
2017-05-15T00:14:14.435Z,14.84
2017-05-15T00:14:55.326Z,14.89
2017-05-15T00:15:36.223Z,14.89
2017-05-15T00:16:17.108Z,14.89
2017-05-15T00:16:57.994Z,14.97
2017-05-15T00:17:38.893Z,14.91
2017-05-15T00:18:19.770Z,14.96
2017-05-15T00:19:01.502Z,14.84
2017-05-15T00:19:41.518Z,14.94
2017-05-15T00:20:23.274Z,14.92
2017-05-15T00:21:04.154Z,14.88
2017-05-15T00:21:45.046Z,14.96
2017-05-15T00:22:25.935Z,14.91
2017-05-15T00:23:06.833Z,14.94
2017-05-15T00:23:47.729Z,14.96
2017-05-15T00:24:28.624Z,14.89
2017-05-15T00:25:09.492Z,14.84
2017-05-15T00:25:50.383Z,14.81
2017-05-15T00:26:31.304Z,14.82
2017-05-15T00:27:12.191Z,14.81
2017-05-15T00:27:53.086Z,14.84
2017-05-15T00:28:33.983Z,14.82
2017-05-15T00:29:14.877Z,14.81
2017-05-15T00:29:55.767Z,14.78
2017-05-15T00:30:36.655Z,14.79
2017-05-15T00:31:17.538Z,14.81
2017-05-15T00:31:58.452Z,14.92
2017-05-15T00:32:39.336Z,14.79
2017-05-15T00:33:20.217Z,14.79
2017-05-15T00:34:01.131Z,14.73
2017-05-15T00:34:42.018Z,14.6
2017-05-15T00:35:22.915Z,14.7
2017-05-15T00:36:03.809Z,14.66
2017-05-15T00:36:44.686Z,14.68
2017-05-15T00:37:25.568Z,14.72
2017-05-15T00:38:06.455Z,14.78
2017-05-15T00:38:47.358Z,14.69
2017-05-15T00:39:28.224Z,14.77
2017-05-15T00:40:09.099Z,14.79
2017-05-15T00:40:49.985Z,14.79
2017-05-15T00:41:30.874Z,14.79
2017-05-15T00:42:11.762Z,14.81
2017-05-15T00:42:52.639Z,14.77
2017-05-15T00:43:33.527Z,14.82
2017-05-15T00:44:14.416Z,14.77
2017-05-15T00:44:55.293Z,14.77
2017-05-15T00:45:36.172Z,14.77
2017-05-15T00:46:17.074Z,14.81
2017-05-15T00:46:57.967Z,14.81
2017-05-15T00:47:38.849Z,14.7
2017-05-15T00:48:19.737Z,14.7
2017-05-15T00:49:00.634Z,14.73
2017-05-15T00:49:41.514Z,14.77
2017-05-15T00:50:22.413Z,14.73
2017-05-15T00:51:03.309Z,14.73
2017-05-15T00:51:44.189Z,14.79
2017-05-15T00:52:25.087Z,14.81
2017-05-15T00:53:05.989Z,14.92
2017-05-15T00:53:46.862Z,14.91
2017-05-15T00:54:27.752Z,14.89
2017-05-15T00:55:08.654Z,14.94
2017-05-15T00:55:49.524Z,14.92
2017-05-15T00:56:30.408Z,14.97
2017-05-15T00:57:11.289Z,15.02
2017-05-15T00:57:52.195Z,14.94
2017-05-15T00:58:33.073Z,14.96
2017-05-15T00:59:13.978Z,14.99
2017-05-15T00:59:54.886Z,14.96
2017-05-15T01:00:35.782Z,14.97
2017-05-15T01:01:16.690Z,14.97
2017-05-15T01:01:57.572Z,15.02
2017-05-15T01:02:38.454Z,14.97
2017-05-15T01:03:19.348Z,14.96
2017-05-15T01:04:00.235Z,14.97
2017-05-15T01:04:41.129Z,14.97
2017-05-15T01:05:22.058Z,15.04
2017-05-15T01:06:02.948Z,14.88
2017-05-15T01:06:43.837Z,15
2017-05-15T01:07:24.717Z,15.06
2017-05-15T01:08:05.603Z,15
2017-05-15T01:08:46.510Z,15.09
2017-05-15T01:09:27.391Z,15.03
2017-05-15T01:10:08.270Z,15.07
2017-05-15T01:10:49.167Z,15.17
2017-05-15T01:11:30.054Z,15.07
2017-05-15T01:12:10.946Z,15.03
2017-05-15T01:12:51.876Z,15.15
2017-05-15T01:13:32.726Z,15.09
2017-05-15T01:14:13.613Z,15.14
2017-05-15T01:14:54.547Z,15.15
2017-05-15T01:15:35.408Z,15.04
2017-05-15T01:16:16.292Z,15.06
2017-05-15T01:16:57.184Z,15.06
2017-05-15T01:17:38.077Z,15.03
2017-05-15T01:18:18.968Z,15.07
2017-05-15T01:18:59.861Z,15.09
2017-05-15T01:19:40.753Z,15.15
2017-05-15T01:20:21.638Z,15.11
2017-05-15T01:21:02.526Z,15.27
2017-05-15T01:21:43.432Z,15.24
2017-05-15T01:22:24.322Z,15.19
2017-05-15T01:23:05.217Z,15.22
2017-05-15T01:23:46.112Z,15.21
2017-05-15T01:24:27.000Z,15.18
2017-05-15T01:25:07.891Z,15.19
2017-05-15T01:25:48.790Z,15.29
2017-05-15T01:26:29.678Z,15.19
2017-05-15T01:27:10.585Z,15.29
2017-05-15T01:27:51.480Z,15.28
2017-05-15T01:28:32.412Z,15.33
2017-05-15T01:29:13.392Z,15.29
2017-05-15T01:29:54.269Z,15.25
2017-05-15T01:30:35.156Z,15.28
2017-05-15T01:31:16.063Z,15.18
2017-05-15T01:31:56.962Z,15.21
2017-05-15T01:32:37.836Z,15.21
2017-05-15T01:33:18.720Z,15.18
2017-05-15T01:33:59.603Z,15.19
2017-05-15T01:34:40.485Z,15.19
2017-05-15T01:35:21.371Z,14.99
2017-05-15T01:36:02.271Z,15.06
2017-05-15T01:36:43.159Z,15.1
2017-05-15T01:37:24.043Z,15.09
2017-05-15T01:38:04.932Z,15.11
2017-05-15T01:38:45.815Z,15.17
2017-05-15T01:39:26.697Z,15.22
2017-05-15T01:40:07.585Z,15.21
2017-05-15T01:40:48.473Z,15.19
2017-05-15T01:41:29.357Z,15.24
2017-05-15T01:42:10.250Z,15.21
2017-05-15T01:42:51.144Z,15.33
2017-05-15T01:43:32.034Z,15.33
2017-05-15T01:45:10.457Z,15.29
2017-05-15T01:45:51.339Z,15.31
2017-05-15T01:46:32.247Z,15.21
2017-05-15T01:47:13.132Z,15.21
2017-05-15T01:47:54.031Z,15.18
2017-05-15T01:48:34.920Z,15.18
2017-05-15T01:49:15.805Z,15.19
2017-05-15T01:49:56.693Z,15.21
2017-05-15T01:50:37.588Z,15.22
2017-05-15T01:51:18.474Z,15.22
2017-05-15T01:51:59.371Z,15.24
2017-05-15T01:52:40.268Z,15.21
2017-05-15T01:53:21.141Z,15.19
2017-05-15T01:54:02.019Z,15.22
2017-05-15T01:54:42.905Z,15.19
2017-05-15T01:55:23.807Z,15.24
2017-05-15T01:56:04.694Z,15.15
2017-05-15T01:56:45.602Z,15.15
2017-05-15T01:57:26.485Z,15.11
2017-05-15T01:58:07.370Z,15.14
2017-05-15T01:58:48.242Z,15.11
2017-05-15T01:59:29.133Z,15.11
2017-05-15T02:00:10.019Z,15.15
2017-05-15T02:00:50.899Z,15.17
2017-05-15T02:01:31.786Z,15.19
2017-05-15T02:02:12.678Z,15.02
2017-05-15T02:02:53.565Z,15.1
2017-05-15T02:03:34.465Z,15.06
2017-05-15T02:04:15.367Z,15.09
2017-05-15T02:04:56.254Z,15.03
2017-05-15T02:05:37.123Z,15
2017-05-15T02:06:18.037Z,15.03
2017-05-15T02:06:58.927Z,15.18
2017-05-15T02:07:39.814Z,15.11
2017-05-15T02:08:20.712Z,15.09
2017-05-15T02:09:01.600Z,15.24
2017-05-15T02:09:42.493Z,15.15
2017-05-15T02:10:23.412Z,15.18
2017-05-15T02:11:04.277Z,15.24
2017-05-15T02:11:45.169Z,15.21
2017-05-15T02:12:26.066Z,15.25
2017-05-15T02:13:06.955Z,15.31
2017-05-15T02:13:47.846Z,15.25
2017-05-15T02:14:28.740Z,15.25
2017-05-15T02:15:09.617Z,15.25
2017-05-15T02:15:50.506Z,15.31
2017-05-15T02:16:31.411Z,15.28
2017-05-15T02:17:12.308Z,15.31
2017-05-15T02:17:53.207Z,15.27
2017-05-15T02:18:34.103Z,15.31
2017-05-15T02:19:14.987Z,15.29
2017-05-15T02:19:55.875Z,15.27
2017-05-15T02:20:36.756Z,15.29
2017-05-15T02:21:17.646Z,15.25
2017-05-15T02:21:58.531Z,15.35
2017-05-15T02:22:39.439Z,15.35
2017-05-15T02:23:20.333Z,15.29
2017-05-15T02:24:01.224Z,15.33
2017-05-15T02:24:42.115Z,15.22
2017-05-15T02:25:23.006Z,15.36
2017-05-15T02:26:03.897Z,15.35
2017-05-15T02:26:44.802Z,15.36
2017-05-15T02:27:25.691Z,15.29
2017-05-15T02:28:07.814Z,15.25
2017-05-15T02:28:48.697Z,15.28
2017-05-15T02:29:29.590Z,15.36
2017-05-15T02:30:10.474Z,15.28
2017-05-15T02:30:51.378Z,15.37
2017-05-15T02:31:33.045Z,15.43
2017-05-15T02:33:27.448Z,15.43
2017-05-15T02:34:08.376Z,15.33
2017-05-15T02:34:49.223Z,15.33
2017-05-15T02:35:30.114Z,15.35
2017-05-15T02:36:11.008Z,15.33
2017-05-15T02:36:51.901Z,15.39
2017-05-15T02:37:32.794Z,15.39
2017-05-15T02:38:13.692Z,15.37
2017-05-15T02:38:54.581Z,15.37
2017-05-15T02:39:35.475Z,15.35
2017-05-15T02:40:16.364Z,15.37
2017-05-15T02:40:57.260Z,15.36
2017-05-15T02:41:38.153Z,15.37
2017-05-15T02:42:19.056Z,15.25
2017-05-15T02:42:59.947Z,15.31
2017-05-15T02:43:40.834Z,15.29
2017-05-15T02:44:21.730Z,15.27
2017-05-15T02:45:02.623Z,15.31
2017-05-15T02:45:43.510Z,15.25
2017-05-15T02:46:24.399Z,15.28
2017-05-15T02:47:05.304Z,15.36
2017-05-15T02:47:47.498Z,15.24
2017-05-15T02:48:28.398Z,15.22
2017-05-15T02:49:09.291Z,15.24
2017-05-15T02:49:50.186Z,15.28
2017-05-15T02:50:31.072Z,15.22
2017-05-15T02:51:11.984Z,15.35
2017-05-15T02:51:52.892Z,15.4
2017-05-15T02:54:12.838Z,15.42
2017-05-15T02:54:53.726Z,15.44
2017-05-15T02:55:34.606Z,15.4
2017-05-15T02:56:15.499Z,15.37
2017-05-15T02:56:56.389Z,15.42
2017-05-15T02:57:37.266Z,15.4
2017-05-15T02:58:18.167Z,15.49
2017-05-15T02:58:59.075Z,15.46
2017-05-15T02:59:39.943Z,15.49
2017-05-15T03:00:20.847Z,15.55
2017-05-15T03:01:01.742Z,15.55
2017-05-15T03:01:42.631Z,15.52
2017-05-15T03:02:23.526Z,15.55
2017-05-15T03:03:04.412Z,15.57
2017-05-15T03:03:45.316Z,15.52
2017-05-15T03:04:26.205Z,15.62
2017-05-15T03:05:07.096Z,15.47
2017-05-15T03:05:47.994Z,15.37
2017-05-15T03:06:28.924Z,15.24
2017-05-15T03:07:09.807Z,15.31
2017-05-15T03:07:50.695Z,15.18
2017-05-15T03:08:31.580Z,15.37
2017-05-15T03:09:12.479Z,15.18
2017-05-15T03:09:53.449Z,15.21
2017-05-15T03:10:34.441Z,15.21
2017-05-15T03:11:15.401Z,15.21
2017-05-15T03:11:56.300Z,15.22
2017-05-15T03:12:37.216Z,15.18
2017-05-15T03:13:18.146Z,15.25
2017-05-15T03:13:59.167Z,15.33
2017-05-15T03:14:40.044Z,15.37
2017-05-15T03:15:20.944Z,15.44
2017-05-15T03:16:01.836Z,15.49
2017-05-15T03:16:42.717Z,15.46
2017-05-15T03:17:23.601Z,15.47
2017-05-15T03:18:04.487Z,15.46
2017-05-15T03:18:45.399Z,15.37
2017-05-15T03:19:26.294Z,15.33
2017-05-15T03:20:07.190Z,15.36
2017-05-15T03:20:48.085Z,15.27
2017-05-15T03:21:28.964Z,15.37
2017-05-15T03:22:09.890Z,15.31
2017-05-15T03:22:50.781Z,15.35
2017-05-15T03:23:31.688Z,15.42
2017-05-15T03:24:12.597Z,15.39
2017-05-15T03:25:40.751Z,15.31
2017-05-15T03:26:21.633Z,15.37
2017-05-15T03:27:02.525Z,15.39
2017-05-15T03:27:43.414Z,15.35
2017-05-15T03:28:24.308Z,15.43
2017-05-15T03:29:05.206Z,15.46
2017-05-15T03:29:46.111Z,15.46
2017-05-15T03:30:27.001Z,15.49
2017-05-15T03:31:07.896Z,15.39
2017-05-15T03:31:48.783Z,15.36
2017-05-15T03:32:29.667Z,15.36
2017-05-15T03:33:10.602Z,15.43
2017-05-15T03:33:51.484Z,15.36
2017-05-15T03:34:32.374Z,15.37
2017-05-15T03:35:13.260Z,15.28
2017-05-15T03:35:54.155Z,15.29
2017-05-15T03:36:35.044Z,15.17
2017-05-15T03:37:15.933Z,15.22
2017-05-15T03:37:56.831Z,15.36
2017-05-15T03:38:37.718Z,15.29
2017-05-15T03:39:18.610Z,15.36
2017-05-15T03:39:59.501Z,15.44
2017-05-15T03:40:40.380Z,15.31
2017-05-15T03:41:21.276Z,15.37
2017-05-15T03:42:02.167Z,15.36
2017-05-15T03:42:43.068Z,15.31
2017-05-15T03:43:23.949Z,15.37
2017-05-15T03:44:04.844Z,15.51
2017-05-15T03:44:45.739Z,15.42
2017-05-15T03:45:26.657Z,15.51
2017-05-15T03:46:07.585Z,15.46
2017-05-15T03:46:48.481Z,15.51
2017-05-15T03:47:29.381Z,15.46
2017-05-15T03:48:10.293Z,15.46
2017-05-15T03:48:51.191Z,15.55
2017-05-15T03:49:32.092Z,15.54
2017-05-15T03:50:12.992Z,15.62
2017-05-15T03:50:53.880Z,15.51
2017-05-15T03:51:34.788Z,15.55
2017-05-15T03:52:15.665Z,15.61
2017-05-15T03:52:56.573Z,15.52
2017-05-15T03:53:37.477Z,15.59
2017-05-15T03:54:18.437Z,15.61
2017-05-15T03:54:59.286Z,15.67
2017-05-15T03:55:40.190Z,15.55
2017-05-15T03:56:21.083Z,15.57
2017-05-15T03:57:01.980Z,15.47
2017-05-15T03:57:42.868Z,15.22
2017-05-15T03:58:23.766Z,15.33
2017-05-15T03:59:04.653Z,15.39
2017-05-15T03:59:45.534Z,15.42
2017-05-15T04:00:26.421Z,15.43
2017-05-15T04:01:07.320Z,15.37
2017-05-15T04:01:48.182Z,15.37
2017-05-15T04:02:29.093Z,15.33
2017-05-15T04:03:09.993Z,15.25
2017-05-15T04:03:50.882Z,15.21
2017-05-15T04:04:31.779Z,15.24
2017-05-15T04:05:12.671Z,15.27
2017-05-15T04:05:53.567Z,15.19
2017-05-15T04:06:34.483Z,15.4
2017-05-15T04:07:15.382Z,15.42
2017-05-15T04:07:56.280Z,15.44
2017-05-15T04:08:37.199Z,15.39
2017-05-15T04:09:18.096Z,15.42
2017-05-15T04:09:58.984Z,15.49
2017-05-15T04:10:39.875Z,15.46
2017-05-15T04:11:20.755Z,15.67
2017-05-15T04:12:01.645Z,15.62
2017-05-15T04:12:42.538Z,15.7
2017-05-15T04:13:23.439Z,15.68
2017-05-15T04:14:04.337Z,15.79
2017-05-15T04:14:45.224Z,15.86
2017-05-15T04:15:26.096Z,15.8
2017-05-15T04:16:06.981Z,15.83
2017-05-15T04:16:47.869Z,15.95
2017-05-15T04:17:28.761Z,15.91
2017-05-15T04:18:09.657Z,15.91
2017-05-15T04:18:50.547Z,15.94
2017-05-15T04:19:31.431Z,15.98
2017-05-15T04:20:12.319Z,15.97
2017-05-15T04:20:53.203Z,16.02
2017-05-15T04:21:34.101Z,16.01
2017-05-15T04:22:14.988Z,16.01
2017-05-15T04:22:55.875Z,16.15
2017-05-15T04:23:36.780Z,16.17
2017-05-15T04:24:17.681Z,16.1
2017-05-15T04:24:58.571Z,16.12
2017-05-15T04:25:39.489Z,16.16
2017-05-15T04:26:20.377Z,16.2
2017-05-15T04:27:01.272Z,16.24
2017-05-15T04:27:42.162Z,16.21
2017-05-15T04:28:23.085Z,16.08
2017-05-15T04:29:04.000Z,16.17
2017-05-15T04:29:44.851Z,16.09
2017-05-15T04:30:25.746Z,16.21
2017-05-15T04:31:06.650Z,16.23
2017-05-15T04:31:47.555Z,16.28
2017-05-15T04:32:28.443Z,16.2
2017-05-15T04:33:09.327Z,15.98
2017-05-15T04:33:50.233Z,15.97
2017-05-15T04:34:31.112Z,16.02
2017-05-15T04:35:12.003Z,16.05
2017-05-15T04:35:52.909Z,16.08
2017-05-15T04:36:33.821Z,16.15
2017-05-15T04:37:14.706Z,16.21
2017-05-15T04:37:55.605Z,16.13
2017-05-15T04:38:36.498Z,16.21
2017-05-15T04:39:17.390Z,16.02
2017-05-15T04:39:58.294Z,15.95
2017-05-15T04:40:39.197Z,16.01
2017-05-15T04:41:20.081Z,15.86
2017-05-15T04:42:00.976Z,15.97
2017-05-15T04:42:41.872Z,16.04
2017-05-15T04:43:22.754Z,16.01
2017-05-15T04:44:03.640Z,16.1
2017-05-15T04:44:44.544Z,16.05
2017-05-15T04:45:25.432Z,16.05
2017-05-15T04:46:06.326Z,16.13
2017-05-15T04:46:47.225Z,16.17
2017-05-15T04:47:28.127Z,16.12
2017-05-15T04:48:08.995Z,16.1
2017-05-15T04:48:49.892Z,16.09
2017-05-15T04:49:30.789Z,16
2017-05-15T04:50:11.686Z,15.92
2017-05-15T04:50:52.558Z,15.98
2017-05-15T04:51:33.462Z,16.12
2017-05-15T04:52:14.347Z,16.16
2017-05-15T04:52:55.226Z,16.31
2017-05-15T04:53:36.111Z,16.32
2017-05-15T04:54:16.998Z,16.35
2017-05-15T04:54:57.914Z,16.47
2017-05-15T04:55:38.821Z,16.29
2017-05-15T04:56:19.721Z,16.2
2017-05-15T04:57:00.609Z,16.28
2017-05-15T04:57:41.523Z,16.26
2017-05-15T04:58:22.428Z,16.21
2017-05-15T04:59:03.481Z,16.17
2017-05-15T04:59:44.292Z,16.26
2017-05-15T05:00:25.170Z,16.21
2017-05-15T05:01:06.059Z,16.13
2017-05-15T05:01:46.944Z,16.17
2017-05-15T05:02:27.825Z,16.21
2017-05-15T05:03:08.730Z,16.12
2017-05-15T05:03:49.620Z,16.16
2017-05-15T05:04:30.539Z,16.17
2017-05-15T05:05:11.388Z,16.21
2017-05-15T05:05:52.275Z,16.02
2017-05-15T05:06:33.224Z,16.01
2017-05-15T05:07:14.147Z,15.98
2017-05-15T05:07:55.047Z,15.9
2017-05-15T05:08:35.934Z,15.92
2017-05-15T05:09:16.838Z,15.95
2017-05-15T05:09:57.733Z,15.88
2017-05-15T05:10:38.682Z,15.91
2017-05-15T05:11:19.530Z,15.91
2017-05-15T05:12:00.423Z,15.94
2017-05-15T05:12:41.310Z,15.94
2017-05-15T05:13:22.196Z,15.92
2017-05-15T05:14:03.079Z,16.02
2017-05-15T05:14:43.986Z,16.04
2017-05-15T05:15:24.869Z,15.98
2017-05-15T05:16:05.766Z,16.04
2017-05-15T05:16:46.655Z,16.04
2017-05-15T05:17:27.569Z,16.12
2017-05-15T05:18:08.425Z,16.1
2017-05-15T05:18:49.308Z,16.13
2017-05-15T05:19:30.199Z,16.16
2017-05-15T05:20:11.099Z,16.16
2017-05-15T05:20:52.022Z,16.28
2017-05-15T05:21:32.984Z,16.28
2017-05-15T05:22:50.874Z,16.51
2017-05-15T05:23:31.777Z,16.53
2017-05-15T05:24:12.667Z,16.47
2017-05-15T05:24:53.550Z,16.47
2017-05-15T05:25:34.488Z,16.54
2017-05-15T05:27:23.180Z,16.51
2017-05-15T05:28:04.072Z,16.39
2017-05-15T05:28:44.978Z,16.36
2017-05-15T05:29:25.987Z,16.42
2017-05-15T05:30:06.789Z,16.46
2017-05-15T05:30:47.684Z,16.39
2017-05-15T05:31:28.579Z,16.46
2017-05-15T05:32:09.463Z,16.51
2017-05-15T05:32:50.345Z,16.42
2017-05-15T05:33:31.241Z,16.51
2017-05-15T05:34:12.131Z,16.42
2017-05-15T05:34:53.069Z,16.39
2017-05-15T05:36:10.970Z,16.46
2017-05-15T05:36:51.854Z,16.39
2017-05-15T05:37:32.756Z,16.47
2017-05-15T05:38:13.668Z,16.47
2017-05-15T05:38:54.552Z,16.46
2017-05-15T05:40:12.437Z,16.43
2017-05-15T05:40:53.320Z,16.47
2017-05-15T05:41:34.249Z,16.65
2017-05-15T05:42:15.109Z,16.58
2017-05-15T05:42:55.999Z,16.61
2017-05-15T05:43:36.889Z,16.66
2017-05-15T05:44:17.776Z,16.64
2017-05-15T05:44:58.658Z,16.64
2017-05-15T05:45:39.555Z,16.69
2017-05-15T05:46:20.431Z,16.78
2017-05-15T05:47:01.320Z,16.81
2017-05-15T05:47:42.239Z,16.86
2017-05-15T05:49:01.117Z,16.87
2017-05-15T05:49:42.024Z,16.99
2017-05-15T05:50:22.915Z,16.93
2017-05-15T05:51:03.804Z,17.09
2017-05-15T05:51:44.695Z,17.16
2017-05-15T05:52:25.585Z,17.05
2017-05-15T05:53:06.471Z,17.06
2017-05-15T05:53:47.383Z,17.05
2017-05-15T05:54:28.272Z,17.16
2017-05-15T05:55:09.171Z,17.23
2017-05-15T05:55:50.072Z,17.05
2017-05-15T05:56:30.945Z,16.96
2017-05-15T05:57:11.848Z,16.94
2017-05-15T05:57:52.748Z,17.05
2017-05-15T05:58:33.623Z,17.11
2017-05-15T05:59:14.511Z,17.06
2017-05-15T05:59:55.409Z,17.08
2017-05-15T06:00:36.305Z,16.91
2017-05-15T06:01:17.201Z,16.86
2017-05-15T06:01:58.092Z,16.96
2017-05-15T06:02:38.995Z,16.78
2017-05-15T06:03:19.889Z,16.71
2017-05-15T06:04:00.792Z,16.86
2017-05-15T06:04:41.739Z,17.02
2017-05-15T06:05:22.638Z,16.83
2017-05-15T06:06:03.539Z,17.05
2017-05-15T06:06:44.431Z,17.05
2017-05-15T06:07:25.319Z,17.01
2017-05-15T06:08:06.217Z,17.09
2017-05-15T06:08:47.130Z,17.24
2017-05-15T06:09:28.010Z,17.24
2017-05-15T06:10:08.896Z,17.15
2017-05-15T06:10:49.784Z,17.22
2017-05-15T06:11:30.680Z,17.19
2017-05-15T06:12:11.572Z,17.19
2017-05-15T06:12:52.508Z,17.19
2017-05-15T06:13:33.338Z,17.08
2017-05-15T06:14:14.247Z,17.08
2017-05-15T06:14:55.132Z,17.14
2017-05-15T06:15:36.041Z,17.16
2017-05-15T06:16:16.924Z,17.12
2017-05-15T06:16:57.819Z,17.27
2017-05-15T06:17:38.822Z,17.36
2017-05-15T06:18:19.698Z,17.57
2017-05-15T06:19:00.585Z,17.7
2017-05-15T06:19:41.490Z,17.78
2017-05-15T06:20:22.374Z,17.76
2017-05-15T06:21:03.265Z,17.83
2017-05-15T06:21:44.172Z,17.82
2017-05-15T06:22:25.054Z,18.11
2017-05-15T06:23:05.927Z,17.97
2017-05-15T06:23:46.816Z,18.04
2017-05-15T06:24:27.729Z,18.28
2017-05-15T06:25:08.648Z,18.1
2017-05-15T06:25:49.527Z,18.05
2017-05-15T06:26:30.421Z,17.92
2017-05-15T06:27:11.320Z,18.13
2017-05-15T06:27:52.219Z,18.56
2017-05-15T06:28:33.101Z,18.59
2017-05-15T06:29:14.016Z,18.78
2017-05-15T06:29:54.901Z,18.7
2017-05-15T06:30:35.821Z,18.78
2017-05-15T06:31:16.724Z,18.63
2017-05-15T06:31:57.623Z,18.65
2017-05-15T06:32:38.530Z,18.78
2017-05-15T06:33:19.410Z,18.93
2017-05-15T06:34:00.306Z,18.77
2017-05-15T06:34:41.202Z,19.29
2017-05-15T06:35:22.088Z,19.27
2017-05-15T06:36:02.990Z,19.59
2017-05-15T06:36:43.887Z,19.76
2017-05-15T06:37:24.768Z,20.39
2017-05-15T06:38:05.680Z,20.78
2017-05-15T06:38:46.562Z,20.84
2017-05-15T06:39:27.471Z,21.02
2017-05-15T06:40:08.379Z,20.78
2017-05-15T06:40:49.263Z,20.65
2017-05-15T06:41:30.172Z,20.51
2017-05-15T06:42:11.063Z,20.5
2017-05-15T06:42:51.965Z,20.7
2017-05-15T06:43:32.867Z,20.21
2017-05-15T06:44:13.777Z,20.4
2017-05-15T06:44:54.690Z,20.59
2017-05-15T06:45:35.576Z,20.63
2017-05-15T06:46:16.480Z,20.7
2017-05-15T06:46:57.425Z,20.7
2017-05-15T06:47:38.347Z,21.2
2017-05-15T06:48:19.257Z,21.75
2017-05-15T06:49:00.155Z,22.2
2017-05-15T06:49:41.058Z,22.76
2017-05-15T06:50:21.966Z,23.21
2017-05-15T06:51:02.870Z,22.76
2017-05-15T06:51:43.771Z,22.38
2017-05-15T06:52:24.670Z,21.95
2017-05-15T06:53:05.576Z,22.65
2017-05-15T06:53:46.477Z,22.91
2017-05-15T06:54:27.376Z,22.63
2017-05-15T06:55:08.277Z,21.73
2017-05-15T06:55:49.175Z,21.95
2017-05-15T06:56:30.084Z,22.29
2017-05-15T06:57:10.970Z,22.3
2017-05-15T06:57:51.868Z,22.33
2017-05-15T06:58:32.780Z,22.33
2017-05-15T06:59:13.678Z,21.45
2017-05-15T06:59:54.573Z,20.59
2017-05-15T07:00:36.048Z,20.21
2017-05-15T07:01:16.948Z,19.94
2017-05-15T07:01:57.847Z,20.26
2017-05-15T07:02:38.752Z,20.4
2017-05-15T07:03:19.665Z,20.32
2017-05-15T07:04:00.571Z,20.31
2017-05-15T07:04:41.483Z,20.04
2017-05-15T07:05:22.389Z,20.21
2017-05-15T07:06:03.292Z,20.55
2017-05-15T07:06:44.204Z,21.02
2017-05-15T07:07:25.105Z,21.21
2017-05-15T07:08:06.005Z,21.77
2017-05-15T07:08:46.920Z,22.54
2017-05-15T07:09:27.817Z,22.8
2017-05-15T07:10:08.706Z,22.7
2017-05-15T07:10:49.614Z,22.38
2017-05-15T07:11:30.523Z,21.91
2017-05-15T07:12:11.431Z,21.67
2017-05-15T07:12:52.328Z,21.5
2017-05-15T07:13:33.233Z,21.83
2017-05-15T07:14:14.135Z,22.13
2017-05-15T07:14:55.046Z,21.72
2017-05-15T07:15:35.946Z,21.92
2017-05-15T07:16:16.840Z,22.22
2017-05-15T07:16:57.748Z,22.36
2017-05-15T07:17:38.652Z,22.66
2017-05-15T07:18:19.559Z,22.78
2017-05-15T07:19:00.440Z,23.28
2017-05-15T07:19:41.350Z,22.7
2017-05-15T07:20:22.239Z,22.23
2017-05-15T07:21:03.145Z,22.22
2017-05-15T07:21:44.056Z,21.12
2017-05-15T07:22:24.958Z,21.33
2017-05-15T07:23:05.873Z,21.5
2017-05-15T07:23:46.771Z,21.15
2017-05-15T07:24:27.674Z,21.36
2017-05-15T07:25:08.576Z,21.93
2017-05-15T07:25:49.485Z,22.66
2017-05-15T07:26:30.391Z,23.03
2017-05-15T07:27:11.297Z,23.41
2017-05-15T07:27:52.198Z,23.71
2017-05-15T07:28:33.137Z,24.3
2017-05-15T07:29:14.030Z,24.43
2017-05-15T07:29:54.942Z,24.48
2017-05-15T07:30:35.848Z,24.33
2017-05-15T07:31:16.754Z,24.08
2017-05-15T07:31:57.657Z,22.84
2017-05-15T07:33:16.548Z,23.09
2017-05-15T07:33:57.454Z,22.53
2017-05-15T07:34:38.361Z,22.3
2017-05-15T07:35:19.281Z,22.5
2017-05-15T07:36:00.180Z,23
2017-05-15T07:36:41.086Z,23.05
2017-05-15T07:37:21.990Z,22.78
2017-05-15T07:38:02.895Z,21.61
2017-05-15T07:38:43.802Z,21.24
2017-05-15T07:39:24.704Z,21.33
2017-05-15T07:40:05.613Z,20.99
2017-05-15T07:40:46.518Z,20.87
2017-05-15T07:41:27.422Z,21.46
2017-05-15T07:42:08.326Z,21.91
2017-05-15T07:42:49.232Z,22.28
2017-05-15T07:43:30.142Z,21.95
2017-05-15T07:44:11.053Z,20.81
2017-05-15T07:44:51.962Z,20.66
2017-05-15T07:45:32.869Z,21.27
2017-05-15T07:46:13.784Z,21.22
2017-05-15T07:46:54.686Z,21.32
2017-05-15T07:47:35.593Z,21.67
2017-05-15T07:48:16.494Z,21.98
2017-05-15T07:48:57.395Z,22.08
2017-05-15T07:49:38.291Z,21.91
2017-05-15T07:50:19.195Z,21.17
2017-05-15T07:51:00.102Z,20.74
2017-05-15T07:51:41.007Z,20.6
2017-05-15T07:52:21.908Z,20.85
2017-05-15T07:53:02.812Z,20.63
2017-05-15T07:53:43.713Z,20.72
2017-05-15T07:54:24.640Z,20.55
2017-05-15T07:55:05.572Z,20.52
2017-05-15T07:55:46.481Z,20.7
2017-05-15T07:56:27.392Z,20.21
2017-05-15T07:57:08.311Z,20.13
2017-05-15T07:57:49.224Z,20.16
2017-05-15T07:58:30.137Z,20.25
2017-05-15T07:59:11.045Z,20.28
2017-05-15T07:59:51.956Z,20.9
2017-05-15T08:00:32.863Z,21.32
2017-05-15T08:01:13.774Z,21.98
2017-05-15T08:01:54.727Z,22.26
2017-05-15T08:02:35.606Z,22.53
2017-05-15T08:03:16.520Z,22.26
2017-05-15T08:03:57.401Z,22.23
2017-05-15T08:04:38.312Z,22.63
2017-05-15T08:05:19.203Z,22.63
2017-05-15T08:06:00.112Z,22.5
2017-05-15T08:06:41.019Z,22.54
2017-05-15T08:07:21.930Z,22.43
2017-05-15T08:08:02.829Z,22.65
2017-05-15T08:08:43.734Z,23.15
2017-05-15T08:09:24.632Z,23.44
2017-05-15T08:10:05.545Z,22.99
2017-05-15T08:10:46.450Z,22.36
2017-05-15T08:11:27.361Z,21.75
2017-05-15T08:12:08.266Z,21.55
2017-05-15T08:12:49.179Z,21.27
2017-05-15T08:13:30.103Z,21.11
2017-05-15T08:14:10.970Z,20.88
2017-05-15T08:14:52.833Z,21.02
2017-05-15T08:15:32.822Z,20.58
2017-05-15T08:16:13.745Z,20.24
2017-05-15T08:16:54.664Z,20.4
2017-05-15T08:17:35.605Z,20.18
2017-05-15T08:18:16.504Z,20.4
2017-05-15T08:18:57.413Z,20.51
2017-05-15T08:19:38.339Z,20.72
2017-05-15T08:20:19.245Z,20.74
2017-05-15T08:21:00.141Z,20.62
2017-05-15T08:21:41.055Z,20.74
2017-05-15T08:22:21.954Z,20.67
2017-05-15T08:23:02.866Z,20.52
2017-05-15T08:23:44.439Z,20.29
2017-05-15T08:24:25.358Z,20.34
2017-05-15T08:25:06.263Z,20.67
2017-05-15T08:25:47.163Z,20.99
2017-05-15T08:26:28.069Z,20.72
2017-05-15T08:27:08.977Z,21.15
2017-05-15T08:27:49.890Z,21.58
2017-05-15T08:28:30.790Z,21.75
2017-05-15T08:29:11.688Z,21.42
2017-05-15T08:29:52.617Z,22.1
2017-05-15T08:30:33.528Z,22.47
2017-05-15T08:31:14.431Z,22.62
2017-05-15T08:31:55.341Z,23.28
2017-05-15T08:32:36.252Z,23.41
2017-05-15T08:33:17.164Z,23.32
2017-05-15T08:33:58.072Z,23.44
2017-05-15T08:34:38.983Z,23.91
2017-05-15T08:35:19.889Z,23.18
2017-05-15T08:36:00.799Z,23.18
2017-05-15T08:36:41.707Z,22.98
2017-05-15T08:37:22.615Z,22.54
2017-05-15T08:38:03.527Z,22.3
2017-05-15T08:38:44.435Z,22.88
2017-05-15T08:39:25.345Z,22.17
2017-05-15T08:40:06.256Z,21.99
2017-05-15T08:40:47.164Z,22.51
2017-05-15T08:41:28.076Z,23.78
2017-05-15T08:42:08.975Z,24.73
2017-05-15T08:42:49.895Z,25.35
2017-05-15T08:43:30.798Z,25.81
2017-05-15T08:44:11.711Z,25.41
2017-05-15T08:44:52.624Z,23.87
2017-05-15T08:45:33.541Z,23.86
2017-05-15T08:46:14.454Z,22.76
2017-05-15T08:46:55.371Z,22.35
2017-05-15T08:47:36.275Z,22.22
2017-05-15T08:48:17.189Z,22.3
2017-05-15T08:48:58.103Z,21.98
2017-05-15T08:49:39.010Z,21.14
2017-05-15T08:50:19.923Z,20.92
2017-05-15T08:51:00.839Z,21.15
2017-05-15T08:51:41.757Z,21.37
2017-05-15T08:52:22.675Z,22.41
2017-05-15T08:53:03.583Z,22.8
2017-05-15T08:53:44.494Z,22.47
2017-05-15T08:54:25.395Z,22.06
2017-05-15T08:55:06.306Z,22.38
2017-05-15T08:55:47.213Z,22.44
2017-05-15T08:56:28.126Z,23.78
2017-05-15T08:57:09.026Z,23.58